Time;durP1;ratioP1;P1;durP2;ratioP2;P2;SDS_P1;SDS_P2;PMS_P1;PMS_P2;Temp;Humidity;BMP_temperature;BMP_pressure;BME280_temperature;BME280_humidity;BME280_pressure;Samples;Min_cycle;Max_cycle;Signal;HPM_P1;HPM_P2
2023/08/07 00:00:12;;;;;;;2.13;0.80;;;12.90;94.10;;;;;;5052748;28;20789;-70
2023/08/07 00:02:39;;;;;;;4.33;1.27;;;12.90;94.20;;;;;;5052677;28;20556;-67
2023/08/07 00:05:07;;;;;;;2.80;1.37;;;12.90;94.10;;;;;;5052480;28;20839;-67
2023/08/07 00:07:35;;;;;;;3.20;1.10;;;12.90;94.00;;;;;;5052012;28;20438;-68
2023/08/07 00:10:03;;;;;;;2.17;0.80;;;12.90;94.20;;;;;;5003969;28;1370468;-67
2023/08/07 00:12:30;;;;;;;4.33;1.50;;;13.00;94.10;;;;;;5053501;28;20184;-68
2023/08/07 00:14:57;;;;;;;2.40;1.20;;;13.00;94.40;;;;;;5053461;28;20493;-68
2023/08/07 00:17:26;;;;;;;2.30;1.00;;;13.00;94.40;;;;;;5053266;28;20459;-67
2023/08/07 00:19:55;;;;;;;2.30;1.10;;;13.00;94.20;;;;;;5052976;28;20447;-67
2023/08/07 00:22:26;;;;;;;2.70;1.30;;;13.00;94.30;;;;;;5052789;28;20466;-67
2023/08/07 00:24:53;;;;;;;2.93;1.60;;;13.00;94.30;;;;;;5052881;28;20972;-67
2023/08/07 00:27:20;;;;;;;4.13;1.30;;;13.00;94.30;;;;;;5053175;28;20435;-67
2023/08/07 00:29:49;;;;;;;2.00;0.80;;;12.90;94.50;;;;;;5052627;28;20451;-67
2023/08/07 00:32:17;;;;;;;2.67;1.47;;;12.90;94.50;;;;;;5053181;28;20442;-67
2023/08/07 00:34:46;;;;;;;2.30;1.20;;;12.80;94.90;;;;;;5053225;28;20489;-68
2023/08/07 00:37:21;;;;;;;2.00;1.00;;;12.80;95.20;;;;;;5053038;28;20431;-67
2023/08/07 00:39:49;;;;;;;1.97;1.10;;;12.90;95.10;;;;;;5052437;28;20473;-67
2023/08/07 00:42:17;;;;;;;3.63;1.20;;;12.90;94.90;;;;;;5053037;28;20533;-67
2023/08/07 00:44:44;;;;;;;2.13;1.07;;;12.90;95.20;;;;;;5052754;28;20442;-67
2023/08/07 00:47:12;;;;;;;2.13;0.90;;;13.00;95.10;;;;;;5053009;28;20439;-67
2023/08/07 00:49:39;;;;;;;2.40;1.40;;;12.90;95.10;;;;;;5052652;28;20450;-67
2023/08/07 00:52:09;;;;;;;2.90;1.40;;;12.90;95.40;;;;;;5052158;28;20447;-68
2023/08/07 00:54:40;;;;;;;2.27;0.90;;;13.00;95.30;;;;;;5052578;28;20448;-67
2023/08/07 00:57:12;;;;;;;3.23;1.30;;;12.90;95.20;;;;;;5052726;28;20415;-67
2023/08/07 00:59:41;;;;;;;4.03;1.50;;;12.80;94.90;;;;;;5052707;28;20901;-67
2023/08/07 01:02:10;;;;;;;3.17;1.20;;;12.80;95.20;;;;;;5052543;28;20491;-67
2023/08/07 01:04:37;;;;;;;2.53;1.10;;;12.90;95.50;;;;;;5052436;28;20449;-69
2023/08/07 01:07:05;;;;;;;2.53;1.33;;;12.90;95.50;;;;;;5052900;28;20475;-68
2023/08/07 01:09:34;;;;;;;2.07;1.00;;;12.90;95.60;;;;;;5054653;28;20831;-68
2023/08/07 01:12:10;;;;;;;3.03;1.50;;;12.90;95.70;;;;;;5056046;28;20439;-67
2023/08/07 01:14:50;;;;;;;3.03;1.30;;;12.90;95.70;;;;;;5056592;28;20431;-68
2023/08/07 01:17:22;;;;;;;2.30;1.30;;;12.90;96.00;;;;;;5056154;28;20435;-67
2023/08/07 01:19:52;;;;;;;2.23;0.90;;;12.90;96.20;;;;;;5056325;28;20431;-67
2023/08/07 01:22:21;;;;;;;3.30;1.50;;;12.90;96.20;;;;;;5055767;28;20537;-67
2023/08/07 01:24:50;;;;;;;2.70;1.65;;;13.00;96.20;;;;;;5056210;28;20446;-68
2023/08/07 01:27:32;;;;;;;3.23;0.97;;;13.00;96.00;;;;;;5055803;28;20227;-67
2023/08/07 01:30:04;;;;;;;2.00;0.93;;;12.90;95.70;;;;;;5055738;28;20434;-68
2023/08/07 01:32:41;;;;;;;2.10;0.90;;;13.00;95.80;;;;;;5056217;28;20506;-67
2023/08/07 01:35:12;;;;;;;3.10;1.10;;;13.00;96.00;;;;;;5056104;28;20518;-67
2023/08/07 01:37:43;;;;;;;2.00;0.97;;;13.00;95.60;;;;;;5055593;28;20428;-67
2023/08/07 01:40:12;;;;;;;3.23;1.30;;;12.90;95.30;;;;;;5055057;28;20514;-67
2023/08/07 01:42:40;;;;;;;2.70;1.27;;;13.00;95.20;;;;;;5055408;28;20984;-67
2023/08/07 01:45:08;;;;;;;4.37;2.97;;;13.00;94.90;;;;;;5055495;28;20766;-67
2023/08/07 01:47:35;;;;;;;2.47;1.50;;;12.90;94.80;;;;;;5055188;28;20447;-67
2023/08/07 01:50:03;;;;;;;2.50;0.93;;;12.90;95.00;;;;;;5055479;28;20917;-67
2023/08/07 01:52:30;;;;;;;3.10;1.40;;;12.90;94.90;;;;;;5055273;28;20503;-67
2023/08/07 01:54:59;;;;;;;2.73;1.43;;;12.90;95.00;;;;;;5055400;28;20432;-67
2023/08/07 01:57:28;;;;;;;2.23;1.30;;;12.90;94.80;;;;;;5055643;28;20439;-67
2023/08/07 01:59:55;;;;;;;4.00;1.00;;;12.90;94.90;;;;;;5054922;28;20918;-68
2023/08/07 02:02:23;;;;;;;12.40;2.20;;;12.90;94.30;;;;;;5054997;28;20474;-67
2023/08/07 02:04:50;;;;;;;2.50;1.23;;;12.80;94.10;;;;;;5055490;28;20443;-67
2023/08/07 02:07:18;;;;;;;2.53;1.20;;;12.90;94.20;;;;;;5055034;28;20436;-67
2023/08/07 02:09:45;;;;;;;5.67;1.90;;;12.80;94.10;;;;;;5054847;28;20468;-67
2023/08/07 02:12:14;;;;;;;2.47;1.07;;;12.90;93.80;;;;;;5055379;28;20754;-67
2023/08/07 02:14:41;;;;;;;2.63;1.30;;;12.80;93.50;;;;;;5054687;28;20493;-67
2023/08/07 02:17:08;;;;;;;2.20;1.13;;;12.80;93.90;;;;;;5054789;28;20467;-67
2023/08/07 02:19:35;;;;;;;2.20;1.20;;;12.70;94.00;;;;;;5053956;28;20446;-68
2023/08/07 02:22:07;;;;;;;2.33;1.03;;;12.80;93.90;;;;;;5054046;28;20498;-68
2023/08/07 02:24:35;;;;;;;2.80;1.40;;;12.80;93.90;;;;;;5054784;28;20515;-67
2023/08/07 02:27:04;;;;;;;2.90;1.27;;;12.80;94.10;;;;;;5054607;28;20523;-67
2023/08/07 02:29:34;;;;;;;2.93;1.57;;;12.80;93.90;;;;;;5054961;28;20526;-67
2023/08/07 02:32:01;;;;;;;2.07;1.10;;;12.60;93.90;;;;;;5052723;28;20450;-67
2023/08/07 02:34:30;;;;;;;2.30;1.00;;;12.60;93.80;;;;;;5053928;28;20449;-67
2023/08/07 02:36:58;;;;;;;2.80;1.10;;;12.60;93.90;;;;;;5054510;28;20944;-67
2023/08/07 02:39:26;;;;;;;2.53;1.20;;;12.60;93.70;;;;;;5054712;28;20435;-67
2023/08/07 02:41:56;;;;;;;3.00;1.20;;;12.60;93.50;;;;;;5054321;28;20559;-68
2023/08/07 02:44:23;;;;;;;2.37;1.27;;;12.60;93.50;;;;;;5054694;28;20501;-67
2023/08/07 02:46:52;;;;;;;2.60;1.60;;;12.60;93.50;;;;;;5054104;28;20449;-67
2023/08/07 02:49:19;;;;;;;2.93;1.30;;;12.60;93.70;;;;;;5053990;28;20473;-67
2023/08/07 02:51:49;;;;;;;2.23;1.23;;;12.60;93.40;;;;;;5054520;28;20856;-67
2023/08/07 02:54:16;;;;;;;2.37;1.10;;;12.60;93.70;;;;;;5053710;28;20913;-68
2023/08/07 02:56:43;;;;;;;2.30;1.30;;;12.60;93.60;;;;;;5034524;28;20467;-67
2023/08/07 02:59:11;;;;;;;3.57;1.43;;;12.60;93.40;;;;;;5033982;28;20447;-67
2023/08/07 03:01:38;;;;;;;2.57;1.53;;;12.60;93.20;;;;;;5033971;28;20567;-67
2023/08/07 03:04:07;;;;;;;3.23;1.30;;;12.50;93.30;;;;;;5034131;28;20921;-67
2023/08/07 03:06:34;;;;;;;2.60;1.30;;;12.50;93.70;;;;;;5034055;28;20467;-67
2023/08/07 03:09:02;;;;;;;2.80;1.50;;;12.50;93.30;;;;;;5033914;28;20208;-68
2023/08/07 03:11:29;;;;;;;2.53;1.33;;;12.50;93.80;;;;;;5053664;28;20495;-67
2023/08/07 03:13:56;;;;;;;2.90;1.20;;;12.60;93.70;;;;;;5052156;28;20439;-67
2023/08/07 03:16:24;;;;;;;2.60;1.40;;;12.60;93.60;;;;;;5053483;28;20439;-68
2023/08/07 03:18:51;;;;;;;6.03;2.27;;;12.60;93.60;;;;;;5054095;28;20784;-68
2023/08/07 03:21:20;;;;;;;2.60;1.50;;;12.70;93.80;;;;;;5053693;28;20521;-68
2023/08/07 03:23:47;;;;;;;3.03;1.80;;;12.70;94.00;;;;;;5053568;28;20479;-68
2023/08/07 03:26:15;;;;;;;2.87;1.60;;;12.80;94.20;;;;;;5053924;28;20437;-68
2023/08/07 03:28:42;;;;;;;2.97;1.60;;;12.80;94.00;;;;;;5053882;28;20436;-67
2023/08/07 03:31:09;;;;;;;2.77;1.70;;;12.80;93.80;;;;;;5053507;28;20966;-67
2023/08/07 03:33:39;;;;;;;2.90;1.57;;;12.80;93.70;;;;;;5053171;28;20946;-67
2023/08/07 03:36:06;;;;;;;3.10;1.57;;;12.80;93.10;;;;;;5053781;28;20439;-68
2023/08/07 03:38:35;;;;;;;2.43;1.30;;;12.80;93.20;;;;;;5052676;28;20878;-67
2023/08/07 03:41:02;;;;;;;2.10;1.20;;;12.90;93.50;;;;;;5053638;28;20439;-67
2023/08/07 03:43:30;;;;;;;2.67;1.53;;;12.90;93.50;;;;;;5053245;28;20973;-68
2023/08/07 03:45:57;;;;;;;4.80;1.73;;;12.90;93.40;;;;;;5053617;28;20432;-69
2023/08/07 03:48:25;;;;;;;7.80;2.07;;;13.00;93.50;;;;;;5053314;28;20501;-67
2023/08/07 03:50:52;;;;;;;9.03;2.13;;;13.00;93.40;;;;;;5053275;28;20471;-68
2023/08/07 03:53:19;;;;;;;3.27;1.67;;;12.90;93.30;;;;;;5053477;28;20796;-68
2023/08/07 03:55:52;;;;;;;3.40;1.80;;;13.00;93.60;;;;;;5053095;28;20918;-68
2023/08/07 03:58:20;;;;;;;4.20;1.70;;;12.90;93.90;;;;;;5053195;28;20930;-68
2023/08/07 04:00:47;;;;;;;3.20;1.80;;;12.90;93.70;;;;;;5053486;28;20443;-68
2023/08/07 04:03:14;;;;;;;2.70;1.53;;;12.90;93.40;;;;;;5053006;28;20474;-67
2023/08/07 04:05:41;;;;;;;2.60;1.50;;;12.90;93.50;;;;;;5053335;28;20438;-67
2023/08/07 04:08:08;;;;;;;5.43;2.17;;;12.90;93.40;;;;;;5052974;28;20443;-68
2023/08/07 04:10:35;;;;;;;4.67;1.87;;;13.00;93.30;;;;;;5052756;28;20557;-68
2023/08/07 04:13:04;;;;;;;3.27;1.80;;;13.00;93.40;;;;;;5053322;28;20446;-68
2023/08/07 04:15:31;;;;;;;4.30;1.90;;;13.00;93.60;;;;;;5053012;28;20442;-71
2023/08/07 04:17:58;;;;;;;5.60;1.80;;;13.10;93.50;;;;;;5052920;28;20441;-68
2023/08/07 04:20:27;;;;;;;9.43;2.00;;;13.10;93.50;;;;;;5053225;28;20447;-68
2023/08/07 04:22:54;;;;;;;3.30;1.77;;;13.10;92.90;;;;;;5048961;28;21012;-68
2023/08/07 04:25:21;;;;;;;2.93;1.70;;;13.00;92.80;;;;;;5052037;28;20442;-68
2023/08/07 04:27:51;;;;;;;5.03;1.70;;;13.00;92.70;;;;;;5051889;28;20504;-68
2023/08/07 04:30:19;;;;;;;4.30;1.70;;;13.00;93.00;;;;;;5051526;28;20443;-68
2023/08/07 04:32:46;;;;;;;4.00;1.80;;;13.00;93.20;;;;;;5052569;28;20833;-68
2023/08/07 04:35:14;;;;;;;5.63;2.17;;;13.10;93.30;;;;;;5054295;28;20432;-68
2023/08/07 04:37:43;;;;;;;5.23;1.57;;;13.10;93.30;;;;;;5052027;28;20435;-70
2023/08/07 04:40:11;;;;;;;3.60;2.00;;;13.10;93.30;;;;;;5051716;28;20443;-68
2023/08/07 04:42:38;;;;;;;4.63;2.13;;;13.20;93.20;;;;;;5051170;28;20807;-68
2023/08/07 04:45:07;;;;;;;5.13;3.07;;;13.20;93.10;;;;;;5055778;28;20440;-68
2023/08/07 04:47:35;;;;;;;3.30;2.13;;;13.20;92.90;;;;;;5056094;28;20446;-68
2023/08/07 04:50:03;;;;;;;3.33;1.73;;;13.30;92.90;;;;;;5055755;28;20496;-68
2023/08/07 04:52:30;;;;;;;2.53;1.60;;;13.20;92.40;;;;;;5055591;28;20452;-68
2023/08/07 04:54:58;;;;;;;5.20;1.53;;;13.30;92.40;;;;;;5056062;28;20462;-70
2023/08/07 04:57:25;;;;;;;4.80;1.70;;;13.20;92.10;;;;;;5056135;28;20442;-69
2023/08/07 04:59:52;;;;;;;3.57;1.77;;;13.20;91.90;;;;;;5055378;28;20497;-69
2023/08/07 05:02:20;;;;;;;3.73;1.70;;;13.20;91.60;;;;;;5055281;28;20537;-68
2023/08/07 05:04:48;;;;;;;2.77;1.60;;;13.10;91.40;;;;;;5055944;28;20439;-69
2023/08/07 05:07:15;;;;;;;2.80;1.60;;;13.10;91.50;;;;;;5055581;28;20439;-68
2023/08/07 05:09:43;;;;;;;3.03;1.47;;;13.00;91.40;;;;;;5055055;28;20925;-69
2023/08/07 05:12:12;;;;;;;4.20;1.40;;;13.00;91.50;;;;;;5054070;28;20922;-68
2023/08/07 05:14:39;;;;;;;8.53;1.80;;;13.00;91.20;;;;;;5045103;28;20510;-68
2023/08/07 05:17:07;;;;;;;3.37;1.83;;;13.00;91.20;;;;;;5055711;28;20444;-68
2023/08/07 05:19:34;;;;;;;3.13;1.60;;;13.10;91.20;;;;;;5055349;28;20530;-68
2023/08/07 05:22:03;;;;;;;5.27;1.60;;;13.10;91.20;;;;;;5055728;28;20435;-69
2023/08/07 05:24:35;;;;;;;2.70;1.90;;;13.20;91.10;;;;;;5055221;28;20435;-68
2023/08/07 05:27:02;;;;;;;2.90;1.43;;;13.20;91.10;;;;;;5055591;28;20427;-68
2023/08/07 05:29:29;;;;;;;3.63;1.73;;;13.20;90.90;;;;;;5042453;28;20435;-70
2023/08/07 05:31:57;;;;;;;3.77;1.53;;;13.10;90.70;;;;;;5054058;28;20526;-68
2023/08/07 05:34:24;;;;;;;4.03;1.77;;;13.20;90.90;;;;;;5054978;28;20919;-68
2023/08/07 05:36:55;;;;;;;6.93;4.10;;;13.20;90.70;;;;;;5054987;28;21002;-68
2023/08/07 05:39:24;;;;;;;3.37;1.80;;;13.20;90.50;;;;;;5055059;28;20428;-68
2023/08/07 05:41:53;;;;;;;3.30;1.40;;;13.10;90.30;;;;;;5055030;28;20435;-68
2023/08/07 05:44:21;;;;;;;4.73;1.57;;;13.20;90.40;;;;;;5051306;28;20583;-68
2023/08/07 05:46:48;;;;;;;3.77;1.50;;;13.10;90.30;;;;;;5051114;28;20435;-69
2023/08/07 05:49:15;;;;;;;3.00;1.70;;;13.10;90.10;;;;;;5055097;28;20439;-68
2023/08/07 05:51:43;;;;;;;3.17;1.57;;;13.20;90.30;;;;;;5054973;28;20439;-68
2023/08/07 05:54:10;;;;;;;2.87;1.50;;;13.10;90.30;;;;;;5054622;28;20470;-68
2023/08/07 05:56:39;;;;;;;3.20;1.50;;;13.10;90.20;;;;;;5054753;28;20471;-68
2023/08/07 05:59:06;;;;;;;4.40;2.23;;;13.10;90.10;;;;;;5054014;28;20440;-68
2023/08/07 06:01:34;;;;;;;3.50;2.17;;;13.20;90.90;;;;;;5054142;28;20443;-68
2023/08/07 06:04:01;;;;;;;3.83;2.03;;;13.20;90.60;;;;;;5053192;28;20984;-70
2023/08/07 06:06:28;;;;;;;2.50;1.30;;;13.30;90.80;;;;;;5054222;28;20436;-68
2023/08/07 06:08:56;;;;;;;2.90;1.60;;;13.50;91.20;;;;;;5054252;28;20467;-68
2023/08/07 06:11:23;;;;;;;4.13;1.50;;;13.60;90.50;;;;;;5054562;28;20467;-68
2023/08/07 06:13:52;;;;;;;3.83;1.60;;;13.60;90.80;;;;;;5054778;28;20443;-69
2023/08/07 06:16:19;;;;;;;3.07;1.37;;;13.70;90.50;;;;;;5053689;28;20543;-71
2023/08/07 06:18:46;;;;;;;3.40;1.60;;;13.80;90.90;;;;;;5052940;28;20440;-68
2023/08/07 06:21:24;;;;;;;4.27;1.37;;;13.80;90.40;;;;;;5053104;28;20501;-73
2023/08/07 06:23:52;;;;;;;3.57;1.97;;;13.80;89.00;;;;;;5054236;28;20499;-69
2023/08/07 06:26:19;;;;;;;3.70;1.33;;;14.00;90.00;;;;;;5053300;28;20475;-68
2023/08/07 06:28:46;;;;;;;3.20;1.57;;;14.00;90.20;;;;;;5054076;28;20475;-69
2023/08/07 06:31:16;;;;;;;5.43;1.70;;;14.10;89.90;;;;;;5052655;28;20468;-69
2023/08/07 06:33:43;;;;;;;2.90;1.23;;;14.20;87.80;;;;;;5052279;28;20436;-70
2023/08/07 06:36:10;;;;;;;2.97;1.33;;;14.20;88.30;;;;;;5051680;28;20439;-69
2023/08/07 06:38:37;;;;;;;4.53;1.70;;;14.20;86.90;;;;;;5052196;28;20518;-69
2023/08/07 06:41:05;;;;;;;5.83;1.47;;;14.30;87.10;;;;;;5054620;28;20833;-68
2023/08/07 06:43:32;;;;;;;3.63;1.20;;;14.40;89.40;;;;;;5054257;28;20512;-68
2023/08/07 06:46:00;;;;;;;2.50;1.33;;;14.60;88.80;;;;;;5054714;28;20519;-68
2023/08/07 06:48:28;;;;;;;6.63;2.23;;;14.60;87.90;;;;;;5054317;28;20953;-68
2023/08/07 06:50:55;;;;;;;3.90;2.50;;;14.80;87.70;;;;;;5054493;28;20520;-68
2023/08/07 06:53:22;;;;;;;3.80;1.73;;;14.80;86.00;;;;;;5054381;28;20502;-68
2023/08/07 06:55:49;;;;;;;4.23;1.53;;;14.90;86.10;;;;;;5054092;28;20515;-68
2023/08/07 06:58:16;;;;;;;3.30;1.53;;;14.90;85.10;;;;;;5054381;28;20516;-69
2023/08/07 07:00:43;;;;;;;2.40;1.27;;;14.90;84.20;;;;;;5054316;28;20834;-68
2023/08/07 07:03:14;;;;;;;3.43;2.03;;;15.00;85.60;;;;;;5053846;28;20562;-68
2023/08/07 07:05:43;;;;;;;3.20;1.50;;;15.00;82.80;;;;;;5053856;28;20464;-68
2023/08/07 07:08:10;;;;;;;2.90;1.60;;;15.10;85.40;;;;;;5053836;28;20761;-69
2023/08/07 07:10:37;;;;;;;4.50;1.57;;;15.20;83.60;;;;;;5053687;28;20475;-70
2023/08/07 07:13:04;;;;;;;2.90;1.40;;;15.30;81.80;;;;;;5051733;28;20475;-69
2023/08/07 07:15:31;;;;;;;4.10;1.10;;;15.30;81.50;;;;;;5053961;28;20448;-68
2023/08/07 07:17:59;;;;;;;3.23;1.10;;;15.40;79.60;;;;;;5053957;28;20837;-68
2023/08/07 07:20:27;;;;;;;2.83;1.63;;;15.40;80.00;;;;;;5053667;28;20949;-68
2023/08/07 07:22:56;;;;;;;3.77;1.50;;;15.40;78.50;;;;;;5053435;28;20895;-68
2023/08/07 07:25:23;;;;;;;2.40;1.27;;;15.40;75.90;;;;;;5053497;28;20495;-68
2023/08/07 07:27:50;;;;;;;5.30;1.40;;;15.40;79.20;;;;;;5053420;28;20475;-69
2023/08/07 07:30:17;;;;;;;3.00;1.40;;;15.60;80.40;;;;;;5053388;28;20486;-68
2023/08/07 07:32:44;;;;;;;4.47;2.10;;;15.80;79.70;;;;;;5053744;28;20421;-68
2023/08/07 07:35:11;;;;;;;4.53;1.67;;;15.90;77.10;;;;;;5053633;28;20479;-69
2023/08/07 07:37:38;;;;;;;4.70;1.50;;;16.00;77.20;;;;;;5053464;28;20530;-68
2023/08/07 07:40:08;;;;;;;3.13;1.40;;;15.90;73.80;;;;;;5053383;28;20479;-69
2023/08/07 07:42:35;;;;;;;3.90;2.37;;;15.70;73.40;;;;;;5053569;28;20472;-68
2023/08/07 07:45:02;;;;;;;3.83;1.70;;;15.70;73.90;;;;;;5053190;28;21030;-69
2023/08/07 07:47:29;;;;;;;3.60;1.80;;;15.80;76.00;;;;;;5053257;28;20440;-68
2023/08/07 07:50:06;;;;;;;4.43;1.67;;;15.70;74.50;;;;;;5053489;28;20914;-68
2023/08/07 07:52:33;;;;;;;3.20;1.23;;;15.80;75.00;;;;;;5053433;28;20417;-68
2023/08/07 07:55:00;;;;;;;3.27;1.27;;;15.80;74.00;;;;;;5053134;28;20523;-68
2023/08/07 07:57:29;;;;;;;3.73;1.67;;;15.90;75.30;;;;;;5053125;28;20990;-68
2023/08/07 07:59:56;;;;;;;3.67;1.43;;;16.00;75.70;;;;;;5053104;28;20468;-68
2023/08/07 08:02:24;;;;;;;4.80;1.13;;;16.10;74.80;;;;;;5053300;28;20517;-69
2023/08/07 08:04:52;;;;;;;3.80;1.43;;;16.20;74.40;;;;;;5052906;28;20479;-69
2023/08/07 08:07:19;;;;;;;2.47;1.10;;;16.30;74.10;;;;;;5053253;28;20447;-69
2023/08/07 08:09:47;;;;;;;2.80;1.63;;;16.30;75.60;;;;;;5053002;28;20542;-68
2023/08/07 08:12:14;;;;;;;6.27;1.90;;;16.50;75.70;;;;;;5053491;28;20440;-69
2023/08/07 08:14:42;;;;;;;3.80;1.60;;;16.60;75.70;;;;;;5052933;28;20476;-68
2023/08/07 08:17:09;;;;;;;2.57;1.23;;;16.70;73.70;;;;;;5052822;28;20950;-68
2023/08/07 08:19:36;;;;;;;3.10;1.63;;;16.80;71.00;;;;;;5055868;28;20494;-68
2023/08/07 08:22:03;;;;;;;4.77;1.80;;;16.90;70.70;;;;;;5057245;28;20499;-69
2023/08/07 08:24:31;;;;;;;4.93;1.43;;;16.90;71.10;;;;;;5057150;28;20509;-68
2023/08/07 08:26:58;;;;;;;4.90;2.60;;;17.00;69.80;;;;;;5057162;28;20440;-68
2023/08/07 08:29:27;;;;;;;4.13;2.00;;;17.10;71.40;;;;;;5057345;28;20437;-68
2023/08/07 08:31:56;;;;;;;3.43;1.70;;;17.20;70.70;;;;;;5057144;28;20449;-68
2023/08/07 08:34:23;;;;;;;3.20;1.50;;;17.20;68.40;;;;;;5056751;28;20437;-68
2023/08/07 08:36:50;;;;;;;3.93;1.23;;;17.30;70.00;;;;;;5056714;28;20445;-68
2023/08/07 08:39:17;;;;;;;2.63;1.30;;;17.40;69.20;;;;;;5056553;28;20498;-68
2023/08/07 08:41:47;;;;;;;3.47;1.40;;;17.30;65.90;;;;;;5056887;28;20520;-69
2023/08/07 08:44:15;;;;;;;3.07;1.80;;;17.40;66.90;;;;;;5056518;28;20475;-68
2023/08/07 08:46:43;;;;;;;3.10;1.43;;;17.40;66.20;;;;;;5056601;28;20949;-68
2023/08/07 08:49:12;;;;;;;5.70;1.43;;;17.40;66.70;;;;;;5056832;28;20520;-68
2023/08/07 08:51:39;;;;;;;3.77;1.40;;;17.50;67.00;;;;;;5056696;28;20542;-68
2023/08/07 08:54:08;;;;;;;3.50;1.20;;;17.50;68.70;;;;;;5056564;28;20487;-68
2023/08/07 08:56:36;;;;;;;2.60;1.20;;;17.40;65.90;;;;;;5056268;28;20430;-68
2023/08/07 08:59:04;;;;;;;2.50;1.33;;;17.40;64.10;;;;;;5056579;28;20506;-69
2023/08/07 09:01:32;;;;;;;4.63;2.47;;;17.20;62.70;;;;;;5056273;28;20472;-68
2023/08/07 09:04:00;;;;;;;4.40;2.40;;;17.30;65.20;;;;;;5056083;28;20508;-68
2023/08/07 09:06:30;;;;;;;3.30;1.67;;;17.20;64.20;;;;;;5056585;28;20461;-68
2023/08/07 09:08:59;;;;;;;2.70;1.10;;;17.20;64.60;;;;;;5056091;28;20472;-68
2023/08/07 09:11:28;;;;;;;2.53;1.33;;;17.20;66.30;;;;;;5056138;28;20520;-69
2023/08/07 09:13:57;;;;;;;3.00;1.87;;;17.20;65.90;;;;;;5056331;28;20476;-68
2023/08/07 09:16:25;;;;;;;3.63;1.20;;;17.10;66.30;;;;;;5056404;28;20476;-68
2023/08/07 09:18:54;;;;;;;3.23;1.30;;;17.10;66.60;;;;;;5056322;28;20460;-68
2023/08/07 09:21:21;;;;;;;2.40;1.47;;;17.20;64.60;;;;;;5056448;28;20793;-69
2023/08/07 09:23:50;;;;;;;3.03;1.53;;;17.30;65.40;;;;;;5056036;28;20838;-68
2023/08/07 09:26:24;;;;;;;3.33;1.40;;;17.20;66.80;;;;;;5055883;28;20469;-68
2023/08/07 09:28:53;;;;;;;2.53;1.10;;;17.20;65.10;;;;;;5056016;28;20504;-68
2023/08/07 09:31:20;;;;;;;5.93;1.70;;;17.20;64.70;;;;;;5055484;28;20469;-68
2023/08/07 09:33:49;;;;;;;2.07;0.90;;;17.20;64.60;;;;;;5055655;28;20528;-68
2023/08/07 09:36:17;;;;;;;3.97;1.60;;;17.30;65.40;;;;;;5055937;28;20478;-69
2023/08/07 09:38:44;;;;;;;2.80;1.23;;;17.40;66.40;;;;;;5055853;28;20772;-68
2023/08/07 09:41:12;;;;;;;3.93;1.80;;;17.50;65.20;;;;;;5055848;28;20430;-68
2023/08/07 09:43:39;;;;;;;2.53;1.27;;;17.50;64.00;;;;;;5052822;28;20932;-68
2023/08/07 09:46:07;;;;;;;2.60;1.30;;;17.50;62.10;;;;;;5055754;28;20462;-69
2023/08/07 09:48:40;;;;;;;2.30;1.13;;;17.50;62.80;;;;;;5055655;28;20470;-68
2023/08/07 09:51:08;;;;;;;2.80;1.20;;;17.50;63.30;;;;;;5055680;28;20488;-73
2023/08/07 09:53:35;;;;;;;4.47;1.60;;;17.40;60.90;;;;;;5055157;28;20437;-69
2023/08/07 09:56:02;;;;;;;3.30;1.10;;;17.40;62.90;;;;;;5055595;28;20480;-68
2023/08/07 09:58:31;;;;;;;2.73;1.40;;;17.30;63.00;;;;;;5055066;28;20469;-69
2023/08/07 10:01:00;;;;;;;2.77;1.20;;;17.30;64.00;;;;;;5055090;28;20470;-69
2023/08/07 10:03:27;;;;;;;3.50;1.40;;;17.40;65.80;;;;;;5055060;28;20434;-72
2023/08/07 10:05:59;;;;;;;7.80;1.53;;;17.50;66.70;;;;;;5054959;28;20517;-69
2023/08/07 10:08:26;;;;;;;4.77;1.50;;;17.70;66.50;;;;;;5055072;28;20458;-68
2023/08/07 10:10:54;;;;;;;3.33;1.30;;;18.00;66.90;;;;;;5053790;28;20465;-68
2023/08/07 10:13:23;;;;;;;2.40;1.20;;;18.10;65.90;;;;;;5055235;28;20838;-68
2023/08/07 10:15:52;;;;;;;2.43;1.10;;;18.20;63.30;;;;;;5055156;28;20764;-68
2023/08/07 10:18:21;;;;;;;2.37;0.97;;;18.40;63.40;;;;;;5055137;28;20466;-68
2023/08/07 10:20:49;;;;;;;2.60;1.10;;;18.50;61.60;;;;;;5054823;28;20512;-68
2023/08/07 10:23:18;;;;;;;2.70;1.20;;;18.80;63.90;;;;;;5054913;28;20826;-68
2023/08/07 10:25:47;;;;;;;2.90;1.40;;;19.10;65.30;;;;;;5054977;28;20619;-68
2023/08/07 10:28:17;;;;;;;3.23;1.37;;;19.20;60.00;;;;;;5054632;28;20623;-68
2023/08/07 10:30:45;;;;;;;2.40;1.13;;;19.40;61.60;;;;;;5055102;28;20533;-68
2023/08/07 10:33:14;;;;;;;2.57;1.50;;;19.50;58.90;;;;;;5055288;28;20436;-69
2023/08/07 10:35:46;;;;;;;2.70;0.97;;;19.60;59.60;;;;;;5054756;28;20492;-69
2023/08/07 10:38:23;;;;;;;2.90;1.10;;;19.40;58.20;;;;;;5054750;28;20505;-69
2023/08/07 10:41:03;;;;;;;2.73;1.10;;;19.30;59.90;;;;;;5054202;28;20493;-70
2023/08/07 10:43:36;;;;;;;3.17;1.30;;;19.00;62.00;;;;;;5054670;28;20421;-68
2023/08/07 10:46:10;;;;;;;2.90;1.03;;;18.80;66.40;;;;;;5054583;28;20505;-68
2023/08/07 10:48:43;;;;;;;3.80;1.20;;;18.50;68.30;;;;;;5054603;28;20484;-69
2023/08/07 10:51:12;;;;;;;2.43;0.90;;;18.30;70.90;;;;;;5054481;28;20474;-68
2023/08/07 10:53:43;;;;;;;3.03;1.20;;;18.10;71.50;;;;;;5053992;28;20920;-69
2023/08/07 10:56:12;;;;;;;2.00;0.90;;;18.10;73.70;;;;;;5054423;28;20472;-68
2023/08/07 10:58:40;;;;;;;2.40;1.20;;;18.10;79.80;;;;;;5054398;28;20471;-68
2023/08/07 11:01:21;;;;;;;1.87;0.80;;;18.30;83.80;;;;;;5053999;28;20908;-68
2023/08/07 11:03:53;;;;;;;2.00;0.97;;;18.50;82.80;;;;;;5054248;28;20513;-68
2023/08/07 11:06:23;;;;;;;2.20;0.83;;;18.80;74.40;;;;;;5044949;28;20794;-69
2023/08/07 11:08:51;;;;;;;2.20;1.00;;;18.90;76.50;;;;;;5054237;28;20461;-68
2023/08/07 11:11:18;;;;;;;2.00;0.70;;;18.90;71.80;;;;;;5053798;28;20592;-68
2023/08/07 11:13:45;;;;;;;3.97;0.80;;;18.90;71.00;;;;;;5054257;28;20477;-70
2023/08/07 11:16:13;;;;;;;2.70;0.87;;;18.40;68.00;;;;;;5053981;28;20853;-68
2023/08/07 11:18:41;;;;;;;2.10;0.90;;;18.20;69.80;;;;;;5052956;28;20473;-68
2023/08/07 11:21:11;;;;;;;3.90;1.50;;;17.90;70.20;;;;;;5053368;28;20435;-68
2023/08/07 11:23:38;;;;;;;2.50;1.10;;;17.80;71.20;;;;;;5051863;28;20433;-68
2023/08/07 11:26:05;;;;;;;2.23;0.90;;;17.60;71.90;;;;;;5053273;28;20524;-68
2023/08/07 11:28:33;;;;;;;2.77;1.00;;;17.30;69.00;;;;;;5052280;28;20854;-68
2023/08/07 11:31:00;;;;;;;2.53;1.03;;;17.10;69.30;;;;;;5052857;28;20444;-68
2023/08/07 11:33:28;;;;;;;2.20;1.10;;;16.90;73.80;;;;;;5052883;28;20464;-68
2023/08/07 11:35:55;;;;;;;2.53;0.80;;;17.00;76.00;;;;;;5052857;28;20968;-68
2023/08/07 11:38:34;;;;;;;4.70;1.00;;;17.20;79.80;;;;;;5053241;28;20517;-68
2023/08/07 11:41:03;;;;;;;2.60;1.57;;;17.50;77.80;;;;;;5053109;28;20438;-70
2023/08/07 11:43:30;;;;;;;2.60;1.10;;;17.70;79.60;;;;;;5052831;28;20472;-69
2023/08/07 11:45:58;;;;;;;2.40;1.07;;;17.90;80.10;;;;;;5053002;28;20485;-69
2023/08/07 11:48:26;;;;;;;2.27;0.93;;;18.00;74.90;;;;;;5053138;28;20493;-68
2023/08/07 11:50:54;;;;;;;2.83;1.07;;;18.10;77.80;;;;;;5052601;28;20473;-69
2023/08/07 11:53:21;;;;;;;2.40;1.00;;;18.20;75.40;;;;;;5050910;28;20470;-68
2023/08/07 11:55:54;;;;;;;3.00;1.13;;;18.20;71.40;;;;;;5052006;28;20433;-70
2023/08/07 11:58:21;;;;;;;2.57;1.03;;;18.00;73.20;;;;;;5051249;28;20495;-71
2023/08/07 12:00:49;;;;;;;2.00;0.87;;;18.00;72.60;;;;;;5052598;28;20517;-68
2023/08/07 12:03:27;;;;;;;2.50;1.27;;;17.90;73.20;;;;;;5052489;28;20949;-68
2023/08/07 12:05:55;;;;;;;6.23;0.97;;;18.00;76.20;;;;;;5053017;28;20478;-68
2023/08/07 12:08:22;;;;;;;2.20;0.80;;;18.10;76.60;;;;;;5052137;28;20472;-69
2023/08/07 12:10:55;;;;;;;2.30;1.00;;;18.30;74.40;;;;;;5053204;28;20490;-68
2023/08/07 12:13:26;;;;;;;4.20;1.20;;;18.50;71.50;;;;;;5053395;28;20465;-70
2023/08/07 12:15:58;;;;;;;2.17;0.77;;;18.60;73.90;;;;;;5053318;28;20487;-68
2023/08/07 12:18:27;;;;;;;2.33;0.80;;;18.70;73.60;;;;;;5053323;28;20829;-68
2023/08/07 12:20:57;;;;;;;2.83;0.80;;;19.00;73.90;;;;;;5053271;28;20462;-68
2023/08/07 12:23:24;;;;;;;2.20;0.90;;;19.20;73.50;;;;;;5053148;28;20846;-68
2023/08/07 12:25:53;;;;;;;2.10;0.90;;;19.50;71.10;;;;;;5052459;28;20534;-68
2023/08/07 12:28:20;;;;;;;1.70;0.60;;;19.50;65.90;;;;;;5053245;28;20438;-68
2023/08/07 12:30:48;;;;;;;1.80;0.70;;;19.40;65.80;;;;;;5052828;28;21016;-69
2023/08/07 12:33:15;;;;;;;5.00;0.90;;;19.40;66.30;;;;;;5052840;28;20965;-69
2023/08/07 12:35:43;;;;;;;2.00;0.80;;;19.50;63.80;;;;;;5052617;28;20473;-68
2023/08/07 12:38:11;;;;;;;2.20;0.90;;;19.40;66.20;;;;;;5052632;28;20466;-68
2023/08/07 12:40:38;;;;;;;2.07;0.73;;;19.30;63.60;;;;;;5052958;28;20793;-68
2023/08/07 12:43:06;;;;;;;2.43;0.80;;;19.20;64.20;;;;;;5053181;28;20482;-68
2023/08/07 12:45:33;;;;;;;2.77;1.10;;;19.20;62.90;;;;;;5052882;28;20558;-68
2023/08/07 12:48:03;;;;;;;2.07;1.07;;;19.20;65.90;;;;;;5053041;28;20594;-68
2023/08/07 12:50:30;;;;;;;2.40;1.07;;;19.20;67.20;;;;;;5052747;28;20922;-68